Time;durP1;ratioP1;P1;durP2;ratioP2;P2;SDS_P1;SDS_P2;PMS_P1;PMS_P2;Temp;Humidity;BMP_temperature;BMP_pressure;BME280_temperature;BME280_humidity;BME280_pressure;Samples;Min_cycle;Max_cycle;Signal;HPM_P1;HPM_P2
2022/10/04 00:00:58;;;;;;;0.80;0.60;;;;;;;6.84;89.54;98339.89;108390;1284;22568;-62
2022/10/04 00:03:27;;;;;;;1.70;0.60;;;;;;;6.84;89.33;98338.37;108535;1283;22599;-63
2022/10/04 00:05:55;;;;;;;0.30;0.30;;;;;;;6.84;89.31;98339.94;108855;1277;22547;-63
2022/10/04 00:08:26;;;;;;;1.60;0.60;;;;;;;6.85;89.32;98334.42;108762;1279;22483;-63
2022/10/04 00:11:19;;;;;;;1.30;0.50;;;;;;;6.85;89.40;98338.10;108989;1278;22443;-63
2022/10/04 00:13:48;;;;;;;0.90;0.50;;;;;;;6.85;89.29;98335.73;108915;1278;22457;-63
2022/10/04 00:16:30;;;;;;;1.10;0.50;;;;;;;6.87;89.50;98334.83;108935;1279;22544;-63
2022/10/04 00:19:18;;;;;;;1.30;0.80;;;;;;;6.88;89.59;98331.48;108783;1277;22662;-63
2022/10/04 00:21:52;;;;;;;1.10;0.90;;;;;;;6.89;89.49;98329.96;108886;1279;22436;-63
2022/10/04 00:24:25;;;;;;;1.00;0.70;;;;;;;6.89;89.58;98330.45;108852;1277;23029;-63
2022/10/04 00:27:11;;;;;;;0.50;0.50;;;;;;;6.90;89.41;98334.41;109305;1271;22455;-63
2022/10/04 00:29:40;;;;;;;1.30;0.50;;;;;;;6.92;89.62;98331.48;109501;1273;22413;-63
2022/10/04 00:32:10;;;;;;;1.10;0.40;;;;;;;6.93;89.86;98333.77;109366;1271;22473;-63
2022/10/04 00:34:47;;;;;;;1.50;0.80;;;;;;;6.94;89.89;98338.14;109500;1273;22423;-64
2022/10/04 00:37:16;;;;;;;1.20;0.70;;;;;;;6.96;89.94;98347.15;109494;1271;22893;-64
2022/10/04 00:39:43;;;;;;;0.80;0.50;;;;;;;6.96;89.87;98345.73;109571;1271;23252;-64
2022/10/04 00:42:24;;;;;;;0.60;0.60;;;;;;;6.96;89.89;98345.69;109496;1271;22387;-64
2022/10/04 00:44:55;;;;;;;0.70;0.50;;;;;;;6.97;90.21;98346.61;109540;1271;22467;-64
2022/10/04 00:47:30;;;;;;;2.20;0.80;;;;;;;6.98;90.10;98346.46;109382;1271;22397;-64
2022/10/04 00:50:07;;;;;;;0.60;0.60;;;;;;;6.97;89.96;98346.29;109548;1271;22511;-64
2022/10/04 00:52:35;;;;;;;0.80;0.60;;;;;;;6.95;90.14;98348.39;109424;1271;22366;-64
2022/10/04 00:55:05;;;;;;;2.70;0.70;;;;;;;6.94;90.51;98348.88;109574;1272;22411;-64
2022/10/04 00:57:36;;;;;;;0.60;0.60;;;;;;;6.94;90.65;98352.71;109509;1271;22456;-64
2022/10/04 01:00:23;;;;;;;1.50;0.80;;;;;;;6.94;90.52;98354.34;109472;1271;22537;-63
2022/10/04 01:02:51;;;;;;;2.00;0.70;;;;;;;6.94;90.85;98357.92;109579;1271;22485;-61
2022/10/04 01:05:19;;;;;;;0.70;0.70;;;;;;;6.94;90.77;98355.86;109504;1271;24519;-62
2022/10/04 01:08:16;;;;;;;1.20;0.70;;;;;;;6.96;90.88;98352.46;109657;1271;22572;-62
2022/10/04 01:10:49;;;;;;;3.80;1.00;;;;;;;6.99;90.87;98354.96;109519;1271;22427;-62
2022/10/04 01:13:21;;;;;;;0.80;0.80;;;;;;;7.00;91.07;98357.15;109537;1271;22520;-62
2022/10/04 01:16:03;;;;;;;1.10;1.00;;;;;;;7.00;90.95;98356.33;109567;1271;23481;-62
2022/10/04 01:18:31;;;;;;;0.50;0.50;;;;;;;7.01;91.07;98352.27;109578;1270;22467;-61
2022/10/04 01:21:23;;;;;;;0.60;0.50;;;;;;;7.01;91.13;98353.04;109527;1271;22491;-64
2022/10/04 01:23:56;;;;;;;0.80;0.60;;;;;;;7.04;91.36;98359.34;109531;1273;22407;-63
2022/10/04 01:26:31;;;;;;;0.60;0.50;;;;;;;7.06;91.25;98356.52;109654;1270;23694;-62
2022/10/04 01:29:04;;;;;;;0.50;0.50;;;;;;;7.09;91.40;98356.04;109472;1272;22227;-62
2022/10/04 01:31:32;;;;;;;1.50;0.60;;;;;;;7.10;91.21;98355.02;109535;1271;22487;-63
2022/10/04 01:34:00;;;;;;;0.60;0.60;;;;;;;7.12;91.41;98358.61;109544;1271;22430;-63
2022/10/04 01:36:27;;;;;;;1.00;0.70;;;;;;;7.14;91.43;98355.34;109442;1271;22618;-63
2022/10/04 01:38:53;;;;;;;0.60;0.60;;;;;;;7.15;91.40;98360.03;109512;1271;22590;-62
2022/10/04 01:41:21;;;;;;;;;;;;;;;7.16;91.49;98360.09;105396;1273;25425;-61
2022/10/04 01:43:49;;;;;;;1.40;0.90;;;;;;;7.17;91.41;98361.73;105115;1271;23212;-60
2022/10/04 01:46:19;;;;;;;3.70;0.70;;;;;;;7.18;91.43;98363.73;105032;1272;22577;-63
2022/10/04 01:48:46;;;;;;;1.00;0.50;;;;;;;7.17;91.57;98368.94;105121;1271;24440;-59
2022/10/04 01:51:18;;;;;;;1.60;0.70;;;;;;;7.18;91.63;98372.02;105151;1272;22548;-61
2022/10/04 01:53:48;;;;;;;0.80;0.80;;;;;;;7.19;91.83;98370.95;109567;1271;22466;-62
2022/10/04 01:56:17;;;;;;;0.90;0.90;;;;;;;7.19;91.86;98376.05;109542;1271;22438;-62
2022/10/04 01:58:45;;;;;;;1.00;0.80;;;;;;;7.19;91.85;98376.26;109551;1271;22415;-62
2022/10/04 02:01:12;;;;;;;0.80;0.50;;;;;;;7.18;91.76;98372.41;109493;1271;22551;-62
2022/10/04 02:03:40;;;;;;;;;;;;;;;7.19;91.93;98373.60;109531;1271;22472;-62
2022/10/04 02:06:07;;;;;;;1.10;0.90;;;;;;;7.19;92.11;98378.92;109497;1271;23135;-62
2022/10/04 02:08:36;;;;;;;2.10;0.70;;;;;;;7.20;92.22;98380.59;109533;1271;22466;-62
2022/10/04 02:11:03;;;;;;;1.90;0.60;;;;;;;7.20;92.41;98382.50;109635;1271;22507;-62
2022/10/04 02:13:35;;;;;;;0.60;0.60;;;;;;;7.20;92.37;98385.38;109533;1271;22517;-62
2022/10/04 02:16:02;;;;;;;2.20;0.60;;;;;;;7.20;92.32;98389.97;109459;1271;22436;-63
2022/10/04 02:18:29;;;;;;;0.60;0.60;;;;;;;7.20;92.29;98389.16;109553;1271;22443;-62
2022/10/04 02:20:56;;;;;;;1.00;0.70;;;;;;;7.20;92.59;98392.95;109478;1273;22458;-62
2022/10/04 02:23:22;;;;;;;;;;;;;;;7.21;92.73;98390.78;109548;1271;22500;-63
2022/10/04 02:25:49;;;;;;;1.20;0.80;;;;;;;7.21;92.58;98389.60;109585;1271;22424;-63
2022/10/04 02:28:17;;;;;;;0.60;0.60;;;;;;;7.21;92.82;98393.28;109537;1271;22417;-63
2022/10/04 02:32:56;;;;;;;0.90;0.90;;;;;;;7.21;92.91;98396.63;109450;1271;22400;-63
2022/10/04 02:33:39;;;;;;;1.20;0.90;;;;;;;7.23;92.93;98396.15;109442;1271;22288;-62
2022/10/04 02:36:08;;;;;;;0.60;0.60;;;;;;;7.23;93.19;98399.34;109431;1273;22399;-64
2022/10/04 02:39:01;;;;;;;1.00;0.80;;;;;;;7.24;93.22;98403.58;109492;1272;23073;-64
2022/10/04 02:41:40;;;;;;;0.80;0.70;;;;;;;7.27;93.40;98405.16;109336;1273;22423;-66
2022/10/04 02:44:21;;;;;;;0.90;0.80;;;;;;;7.28;93.43;98409.71;109483;1271;22511;-65
2022/10/04 02:46:51;;;;;;;0.70;0.70;;;;;;;7.28;93.44;98417.36;109579;1271;22409;-65
2022/10/04 02:49:18;;;;;;;0.60;0.60;;;;;;;7.29;93.44;98416.50;109479;1273;22599;-65
2022/10/04 02:52:30;;;;;;;2.10;1.00;;;;;;;7.31;93.67;98420.36;109492;1272;22512;-65
2022/10/04 02:55:03;;;;;;;1.20;0.70;;;;;;;7.33;93.83;98436.58;109152;1277;23128;-65
2022/10/04 02:57:31;;;;;;;0.70;0.70;;;;;;;7.34;93.99;98444.17;109240;1277;23175;-65
2022/10/04 03:00:18;;;;;;;1.40;0.70;;;;;;;7.35;93.95;98445.74;109027;1277;22474;-66
2022/10/04 03:03:16;;;;;;;0.60;0.60;;;;;;;7.34;93.92;98453.28;109086;1277;22506;-66
2022/10/04 03:05:45;;;;;;;1.10;0.60;;;;;;;7.31;93.61;98455.91;109181;1277;22524;-67
2022/10/04 03:08:12;;;;;;;0.90;0.60;;;;;;;7.30;93.47;98453.78;109038;1277;22421;-66
2022/10/04 03:10:41;;;;;;;0.60;0.40;;;;;;;7.30;93.31;98458.50;108993;1277;23169;-66
2022/10/04 03:13:08;;;;;;;0.50;0.50;;;;;;;7.29;93.16;98463.64;109123;1276;22240;-66
2022/10/04 03:15:34;;;;;;;;;;;;;;;7.29;93.07;98459.14;109053;1277;23483;-67
2022/10/04 03:18:01;;;;;;;0.90;0.60;;;;;;;7.28;92.83;98458.31;109171;1277;22442;-65
2022/10/04 03:20:28;;;;;;;1.00;0.70;;;;;;;7.25;92.77;98460.41;109051;1277;23350;-65
2022/10/04 03:22:54;;;;;;;2.90;0.60;;;;;;;7.23;92.73;98461.05;109265;1277;22413;-63
2022/10/04 03:25:25;;;;;;;24.40;14.40;;;;;;;7.22;92.49;98461.00;109032;1278;22484;-67
2022/10/04 03:27:54;;;;;;;5.40;3.40;;;;;;;7.23;92.56;98466.58;108950;1277;23244;-64
2022/10/04 03:30:20;;;;;;;;;;;;;;;7.22;92.33;98464.36;109442;1271;23638;-63
2022/10/04 03:32:47;;;;;;;1.00;0.90;;;;;;;7.21;92.04;98469.46;109477;1272;22471;-64
2022/10/04 03:35:24;;;;;;;1.50;0.90;;;;;;;7.19;92.00;98476.48;109379;1271;22449;-64
2022/10/04 03:37:51;;;;;;;1.10;1.00;;;;;;;7.17;91.86;98475.83;109407;1271;22397;-64
2022/10/04 03:40:18;;;;;;;1.10;0.80;;;;;;;7.16;91.84;98484.10;107420;1271;25196;-58
2022/10/04 03:42:45;;;;;;;1.40;0.50;;;;;;;7.15;91.68;98482.69;104980;1271;22686;-60
2022/10/04 03:45:14;;;;;;;4.30;0.70;;;;;;;7.13;91.59;98485.27;105017;1273;24422;-61
2022/10/04 03:47:47;;;;;;;1.00;0.50;;;;;;;7.11;91.53;98489.80;109545;1271;22392;-61
2022/10/04 03:50:15;;;;;;;0.90;0.50;;;;;;;7.07;91.48;98490.86;109331;1272;22445;-61
2022/10/04 03:52:47;;;;;;;1.10;0.70;;;;;;;7.05;91.27;98493.56;109530;1271;22430;-62
2022/10/04 03:55:14;;;;;;;1.20;0.80;;;;;;;7.03;91.48;98493.94;109437;1269;22475;-63
2022/10/04 03:57:40;;;;;;;2.60;0.60;;;;;;;7.01;91.36;98497.16;109511;1271;22564;-61
2022/10/04 04:00:08;;;;;;;3.70;0.60;;;;;;;7.01;91.38;98496.51;109602;1271;22475;-62
2022/10/04 04:02:49;;;;;;;2.20;0.80;;;;;;;7.00;91.56;98500.61;109579;1271;22539;-61
2022/10/04 04:05:34;;;;;;;0.50;0.50;;;;;;;7.00;91.39;98497.70;109489;1271;22431;-62
2022/10/04 04:08:23;;;;;;;0.50;0.50;;;;;;;6.99;91.33;98500.39;109458;1271;23421;-61
2022/10/04 04:10:51;;;;;;;0.40;0.40;;;;;;;6.99;91.40;98504.34;109443;1273;23659;-62
2022/10/04 04:13:28;;;;;;;2.00;0.80;;;;;;;7.00;91.38;98502.88;109393;1273;23117;-62
2022/10/04 04:15:55;;;;;;;0.50;0.50;;;;;;;7.00;91.34;98511.50;109479;1271;22454;-61
2022/10/04 04:18:23;;;;;;;0.60;0.60;;;;;;;7.00;91.30;98514.27;109533;1271;22456;-61
2022/10/04 04:20:50;;;;;;;0.60;0.60;;;;;;;7.00;91.36;98519.20;109544;1271;22455;-61
2022/10/04 04:23:27;;;;;;;2.40;0.80;;;;;;;7.00;91.36;98519.95;109480;1272;22451;-61
2022/10/04 04:25:54;;;;;;;1.50;0.90;;;;;;;7.00;91.35;98521.69;109580;1272;22539;-61
2022/10/04 04:28:27;;;;;;;1.70;0.80;;;;;;;7.00;91.30;98520.05;109574;1271;23163;-61
2022/10/04 04:31:17;;;;;;;2.00;0.90;;;;;;;7.01;91.28;98527.82;109517;1271;22456;-61
2022/10/04 04:33:59;;;;;;;1.70;0.90;;;;;;;7.02;91.55;98527.61;109451;1271;23531;-62
2022/10/04 04:36:27;;;;;;;1.00;0.60;;;;;;;7.03;91.46;98529.89;109474;1271;22536;-62
2022/10/04 04:39:33;;;;;;;0.50;0.50;;;;;;;7.01;91.29;98532.86;109596;1271;23358;-62
2022/10/04 04:42:09;;;;;;;0.80;0.60;;;;;;;7.00;91.19;98535.39;109597;1271;22431;-62
2022/10/04 04:44:48;;;;;;;0.70;0.60;;;;;;;6.99;91.32;98535.05;109554;1271;22561;-62
2022/10/04 04:47:57;;;;;;;0.90;0.70;;;;;;;6.99;91.52;98539.77;109467;1271;23531;-62
2022/10/04 04:50:34;;;;;;;1.10;0.90;;;;;;;7.00;91.47;98543.90;108936;1277;22522;-62
2022/10/04 04:53:11;;;;;;;0.70;0.60;;;;;;;7.02;91.86;98548.84;109020;1277;23562;-62
2022/10/04 04:55:43;;;;;;;4.30;0.80;;;;;;;7.03;91.65;98556.59;108876;1278;22479;-62
2022/10/04 04:58:36;;;;;;;1.60;0.70;;;;;;;7.05;91.83;98560.79;109116;1276;22460;-61
2022/10/04 05:01:09;;;;;;;0.90;0.60;;;;;;;7.06;91.75;98564.16;109015;1278;23601;-61
2022/10/04 05:03:36;;;;;;;1.30;0.70;;;;;;;7.09;91.82;98572.39;108933;1277;23194;-60
2022/10/04 05:06:03;;;;;;;2.30;0.80;;;;;;;7.10;91.89;98575.01;109057;1277;22502;-60
2022/10/04 05:08:31;;;;;;;0.70;0.50;;;;;;;7.11;91.99;98576.58;109151;1277;23278;-60
2022/10/04 05:11:08;;;;;;;0.70;0.70;;;;;;;7.11;91.98;98577.94;109120;1277;22568;-61
2022/10/04 05:13:40;;;;;;;1.50;0.80;;;;;;;7.13;92.04;98585.92;109080;1274;22473;-60
2022/10/04 05:16:16;;;;;;;2.40;0.90;;;;;;;7.15;92.24;98588.81;108805;1279;22422;-61
2022/10/04 05:18:43;;;;;;;1.70;0.90;;;;;;;7.17;92.31;98591.27;109082;1277;22539;-60
2022/10/04 05:21:24;;;;;;;;;;;;;;;7.21;92.56;98594.55;109067;1276;22485;-61
2022/10/04 05:23:51;;;;;;;1.30;1.00;;;;;;;7.24;92.53;98600.64;108890;1276;22579;-61
2022/10/04 05:26:25;;;;;;;1.80;1.20;;;;;;;7.26;92.63;98604.92;109397;1271;22463;-60
2022/10/04 05:28:52;;;;;;;2.50;1.40;;;;;;;7.29;92.58;98606.16;109578;1271;23053;-61
2022/10/04 05:31:28;;;;;;;1.00;0.90;;;;;;;7.31;92.57;98608.45;109519;1273;22922;-60
2022/10/04 05:33:56;;;;;;;3.20;1.20;;;;;;;7.32;92.67;98606.95;109573;1271;23361;-60
2022/10/04 05:36:41;;;;;;;1.40;1.00;;;;;;;7.33;92.68;98611.94;109509;1271;22462;-61
2022/10/04 05:39:10;;;;;;;1.60;0.80;;;;;;;7.36;92.63;98614.55;109470;1271;22443;-62
2022/10/04 05:41:41;;;;;;;2.20;1.40;;;;;;;7.39;92.83;98618.79;109615;1271;23060;-61
2022/10/04 05:44:26;;;;;;;1.30;0.90;;;;;;;7.41;92.78;98622.39;109454;1272;22465;-61
2022/10/04 05:46:58;;;;;;;4.00;0.70;;;;;;;7.43;92.87;98622.69;109564;1272;22442;-61
2022/10/04 05:49:27;;;;;;;1.30;0.90;;;;;;;7.46;93.16;98625.42;109526;1273;22568;-62
2022/10/04 05:52:11;;;;;;;1.60;1.00;;;;;;;7.49;92.97;98625.88;109528;1271;22456;-62
2022/10/04 05:54:38;;;;;;;0.60;0.60;;;;;;;7.50;93.01;98625.61;109370;1273;22460;-62
2022/10/04 05:57:39;;;;;;;0.80;0.80;;;;;;;7.54;93.35;98625.03;109529;1272;22487;-62
2022/10/04 06:00:21;;;;;;;2.60;1.40;;;;;;;7.60;93.50;98628.02;109608;1271;23755;-62
2022/10/04 06:03:24;;;;;;;1.20;1.00;;;;;;;7.63;93.44;98631.95;109339;1273;23513;-61
2022/10/04 06:05:56;;;;;;;2.30;1.30;;;;;;;7.68;93.36;98631.42;109596;1271;22390;-62
2022/10/04 06:08:41;;;;;;;1.40;1.10;;;;;;;7.70;93.18;98632.08;109546;1271;22447;-62
2022/10/04 06:11:22;;;;;;;3.40;1.30;;;;;;;7.75;93.46;98634.96;109601;1271;23331;-62
2022/10/04 06:14:02;;;;;;;4.20;1.30;;;;;;;7.81;93.46;98642.58;109629;1271;22492;-61
2022/10/04 06:16:42;;;;;;;2.30;1.30;;;;;;;7.88;93.63;98646.42;109616;1271;22407;-62
2022/10/04 06:19:43;;;;;;;2.60;1.20;;;;;;;7.95;93.46;98649.05;109620;1271;23165;-61
2022/10/04 06:22:17;;;;;;;3.90;1.60;;;;;;;8.00;93.31;98653.22;109559;1272;22450;-61
2022/10/04 06:25:05;;;;;;;3.70;1.60;;;;;;;8.04;93.21;98655.41;109595;1272;22446;-61
2022/10/04 06:27:35;;;;;;;;;;;;;;;8.09;93.20;98660.30;109604;1271;22703;-62
2022/10/04 06:30:11;;;;;;;1.40;1.30;;;;;;;8.13;93.29;98668.53;109543;1271;22983;-63
2022/10/04 06:33:19;;;;;;;2.10;0.90;;;;;;;8.19;93.12;98668.52;109451;1271;22458;-62
2022/10/04 06:36:05;;;;;;;4.50;1.20;;;;;;;8.24;92.86;98679.06;109193;1276;22427;-62
2022/10/04 06:38:50;;;;;;;9.30;2.20;;;;;;;8.28;92.78;98680.34;109189;1276;22409;-62
2022/10/04 06:41:37;;;;;;;4.20;1.10;;;;;;;8.32;92.63;98682.44;109169;1277;22485;-64
2022/10/04 06:44:17;;;;;;;1.50;1.10;;;;;;;8.34;92.48;98689.76;109056;1276;23252;-64
2022/10/04 06:46:50;;;;;;;3.30;1.10;;;;;;;8.38;92.26;98699.35;109186;1276;22425;-63
2022/10/04 06:49:35;;;;;;;1.20;1.10;;;;;;;8.42;92.26;98698.57;108946;1277;22508;-63
2022/10/04 06:52:12;;;;;;;2.60;1.50;;;;;;;8.45;91.96;98700.55;109189;1276;22802;-63
2022/10/04 06:55:13;;;;;;;1.40;1.30;;;;;;;8.46;91.65;98708.33;109102;1276;22314;-64
2022/10/04 06:58:07;;;;;;;2.70;1.40;;;;;;;8.45;91.48;98707.55;109079;1276;23788;-63
2022/10/04 07:01:15;;;;;;;3.50;1.10;;;;;;;8.46;91.48;98708.05;109164;1276;22506;-63
2022/10/04 07:03:53;;;;;;;4.20;1.60;;;;;;;8.48;91.09;98712.52;108624;1282;23593;-64
2022/10/04 07:06:46;;;;;;;2.80;1.30;;;;;;;8.48;91.02;98717.29;108491;1282;22589;-64
2022/10/04 07:09:17;;;;;;;3.40;1.40;;;;;;;8.47;90.89;98718.26;108484;1282;22492;-64
2022/10/04 07:11:48;;;;;;;4.90;1.70;;;;;;;8.47;90.84;98715.64;108370;1276;23199;-64
2022/10/04 07:14:21;;;;;;;1.80;1.40;;;;;;;8.46;90.73;98724.92;109022;1276;22482;-63
2022/10/04 07:16:55;;;;;;;4.40;1.90;;;;;;;8.48;90.64;98729.55;108906;1276;22423;-64
2022/10/04 07:19:28;;;;;;;1.80;1.50;;;;;;;8.49;90.49;98733.31;109109;1276;23214;-65
2022/10/04 07:22:11;;;;;;;3.10;2.20;;;;;;;8.50;90.44;98736.84;109105;1276;22524;-64
2022/10/04 07:24:49;;;;;;;7.80;2.10;;;;;;;8.53;90.43;98741.34;108915;1279;23766;-64
2022/10/04 07:29:45;;;;;;;2.60;2.00;;;;;;;8.56;90.16;98744.63;101899;1309;545760;-65
2022/10/04 07:32:16;;;;;;;2.50;1.70;;;;;;;8.55;90.11;98750.38;104203;1284;22960;-64
2022/10/04 07:35:25;;;;;;;3.80;2.40;;;;;;;8.56;90.03;98755.38;108456;1284;22500;-64
2022/10/04 07:38:04;;;;;;;4.40;2.10;;;;;;;8.56;90.08;98755.91;108502;1284;22462;-65
2022/10/04 07:40:56;;;;;;;4.80;2.70;;;;;;;8.57;90.20;98762.55;105967;1285;25082;-61
2022/10/04 07:43:29;;;;;;;4.10;2.70;;;;;;;8.60;90.32;98768.98;107889;1283;875571;-62
2022/10/04 07:46:22;;;;;;;4.40;2.20;;;;;;;8.61;90.38;98773.27;108641;1282;23920;-61
2022/10/04 07:48:49;;;;;;;24.30;14.70;;;;;;;8.63;90.42;98771.55;108090;1288;23017;-61
2022/10/04 07:51:19;;;;;;;;;;;;;;;8.65;90.50;98778.58;108462;1284;22611;-61
2022/10/04 07:53:45;;;;;;;8.40;2.80;;;;;;;8.68;90.49;98778.23;108345;1284;22426;-62
2022/10/04 07:56:31;;;;;;;6.50;3.10;;;;;;;8.70;90.32;98782.23;108281;1285;22488;-62
2022/10/04 07:59:17;;;;;;;4.00;2.30;;;;;;;8.72;90.16;98783.54;108350;1285;22510;-63
2022/10/04 08:01:55;;;;;;;3.40;2.40;;;;;;;8.73;90.03;98787.67;108432;1284;23238;-62
2022/10/04 08:04:30;;;;;;;2.40;2.10;;;;;;;8.73;89.97;98785.50;108383;1283;22432;-62
2022/10/04 08:06:59;;;;;;;70.30;40.10;;;;;;;8.74;89.97;98790.02;108305;1284;22496;-62
2022/10/04 08:09:42;;;;;;;9.20;5.10;;;;;;;8.77;90.19;98789.98;108231;1284;22443;-62
2022/10/04 08:12:25;;;;;;;4.80;2.80;;;;;;;8.81;90.34;98788.73;108338;1284;22422;-61
2022/10/04 08:14:53;;;;;;;4.10;2.80;;;;;;;8.85;90.28;98793.21;108467;1284;22492;-61
2022/10/04 08:17:38;;;;;;;3.10;1.90;;;;;;;8.88;90.19;98793.78;108372;1283;22587;-61
2022/10/04 08:20:34;;;;;;;3.60;2.30;;;;;;;8.91;89.99;98798.26;108206;1284;22506;-61
2022/10/04 08:23:23;;;;;;;4.30;2.10;;;;;;;8.94;89.81;98800.98;108218;1284;22556;-61
2022/10/04 08:25:54;;;;;;;5.70;2.80;;;;;;;8.97;89.82;98806.85;108643;1280;22474;-61
2022/10/04 08:31:56;;;;;;;4.40;2.80;;;;;;;9.04;89.49;98811.89;108074;1287;22489;-61
2022/10/04 08:34:37;;;;;;;6.00;2.50;;;;;;;9.07;89.44;98813.48;107518;1291;22464;-61
2022/10/04 08:37:12;;;;;;;4.70;2.40;;;;;;;9.10;89.33;98817.02;107500;1292;22690;-61
2022/10/04 08:40:07;;;;;;;8.10;3.70;;;;;;;9.12;89.11;98823.22;107417;1290;22519;-60
2022/10/04 08:42:51;;;;;;;4.40;2.70;;;;;;;9.14;89.01;98829.32;107622;1290;23605;-60
2022/10/04 08:45:36;;;;;;;6.50;2.80;;;;;;;9.13;88.52;98830.84;107521;1292;23247;-61
2022/10/04 08:48:45;;;;;;;7.40;2.30;;;;;;;9.13;88.31;98840.34;107505;1291;22546;-61
2022/10/04 08:51:33;;;;;;;5.70;3.00;;;;;;;9.11;88.03;98840.93;107744;1290;22705;-61
2022/10/04 08:54:18;;;;;;;4.00;2.60;;;;;;;9.11;88.13;98846.09;107765;1291;22283;-59
2022/10/04 08:56:57;;;;;;;16.00;9.20;;;;;;;9.11;88.20;98846.85;107292;1292;23320;-62
2022/10/04 09:00:01;;;;;;;4.10;2.60;;;;;;;9.12;88.14;98850.88;107683;1290;22470;-64
2022/10/04 09:02:49;;;;;;;7.40;2.90;;;;;;;9.11;88.24;98854.84;107632;1292;23413;-60
2022/10/04 09:05:37;;;;;;;6.30;2.90;;;;;;;9.08;88.07;98861.86;107689;1290;23234;-61
2022/10/04 09:08:25;;;;;;;4.90;2.90;;;;;;;9.07;88.07;98868.06;107836;1286;22508;-62
2022/10/04 09:11:18;;;;;;;6.90;3.20;;;;;;;9.06;88.34;98873.38;107719;1287;22512;-62
2022/10/04 09:13:47;;;;;;;6.90;3.50;;;;;;;9.05;88.31;98879.23;108277;1287;22567;-62
2022/10/04 09:16:18;;;;;;;5.50;3.30;;;;;;;9.05;88.55;98878.48;108305;1286;23624;-62
2022/10/04 09:18:54;;;;;;;6.20;3.20;;;;;;;9.05;88.63;98884.02;108253;1285;22448;-62
2022/10/04 09:21:27;;;;;;;5.50;2.60;;;;;;;9.05;88.79;98888.20;108168;1287;23351;-62
2022/10/04 09:24:16;;;;;;;5.40;3.00;;;;;;;9.04;88.96;98892.80;108304;1286;22561;-62
2022/10/04 09:26:45;;;;;;;4.20;2.60;;;;;;;9.03;89.04;98895.57;108360;1286;22477;-62
2022/10/04 09:29:33;;;;;;;4.80;3.10;;;;;;;9.00;88.99;98902.13;108177;1285;23675;-62
2022/10/04 09:32:18;;;;;;;;;;;;;;;9.03;89.23;98906.93;107957;1287;22503;-62
2022/10/04 09:35:02;;;;;;;80.10;52.90;;;;;;;9.05;89.33;98909.73;108202;1287;23348;-59
2022/10/04 09:37:36;;;;;;;13.70;6.20;;;;;;;9.06;89.44;98908.97;108099;1286;22637;-61
2022/10/04 09:40:20;;;;;;;5.90;3.50;;;;;;;9.08;89.50;98914.80;106590;1286;25400;-59
2022/10/04 09:43:03;;;;;;;5.70;3.20;;;;;;;9.11;89.55;98913.33;103916;1288;23693;-59
2022/10/04 09:45:42;;;;;;;8.80;3.40;;;;;;;9.14;89.80;98916.28;103928;1287;22560;-60
2022/10/04 09:48:24;;;;;;;4.90;2.60;;;;;;;9.18;90.12;98915.66;108406;1280;22544;-61
2022/10/04 09:50:57;;;;;;;6.50;3.70;;;;;;;9.23;90.21;98915.91;108655;1281;22469;-61
2022/10/04 09:53:24;;;;;;;8.10;4.60;;;;;;;9.29;89.98;98920.38;108717;1280;23173;-62
2022/10/04 09:56:10;;;;;;;;;;;;;;;9.31;89.92;98919.05;108816;1281;22606;-62
2022/10/04 09:58:57;;;;;;;6.80;3.70;;;;;;;9.35;89.80;98922.39;108962;1280;22539;-61
2022/10/04 10:01:59;;;;;;;6.10;3.80;;;;;;;9.37;89.12;98920.44;108923;1281;22397;-60
2022/10/04 10:04:47;;;;;;;10.90;6.90;;;;;;;9.38;88.91;98926.03;108406;1284;22286;-60
2022/10/04 10:07:32;;;;;;;;;;;;;;;9.38;88.44;98927.71;108435;1284;23706;-60
2022/10/04 10:13:42;;;;;;;5.50;3.30;;;;;;;9.38;88.43;98932.33;108361;1287;22483;-60
2022/10/04 10:16:29;;;;;;;6.50;4.00;;;;;;;9.39;88.47;98933.75;108440;1284;22563;-59
2022/10/04 10:19:05;;;;;;;5.60;2.80;;;;;;;9.38;88.12;98937.72;108350;1287;22690;-60
2022/10/04 10:21:50;;;;;;;7.40;2.90;;;;;;;9.38;88.17;98933.10;108419;1284;22585;-59
2022/10/04 10:24:56;;;;;;;5.70;2.40;;;;;;;9.37;87.74;98938.38;108405;1284;22436;-59
2022/10/04 10:27:49;;;;;;;4.00;2.70;;;;;;;9.34;87.19;98946.09;108192;1287;22637;-59
2022/10/04 10:30:46;;;;;;;9.80;3.50;;;;;;;9.34;87.16;98949.08;108508;1284;24549;-60
2022/10/04 10:33:44;;;;;;;6.50;3.50;;;;;;;9.32;86.77;98954.98;108358;1284;23361;-60
2022/10/04 10:36:28;;;;;;;5.70;3.20;;;;;;;9.30;86.71;98965.03;107609;1292;23574;-59
2022/10/04 10:39:07;;;;;;;3.60;2.00;;;;;;;9.27;86.49;98963.60;107607;1290;23255;-59
2022/10/04 10:42:05;;;;;;;4.00;2.30;;;;;;;9.23;86.54;98968.31;103718;1290;22575;-58
2022/10/04 10:44:55;;;;;;;5.50;2.90;;;;;;;9.18;86.51;98962.02;108040;1287;22491;-59
2022/10/04 10:47:31;;;;;;;8.20;3.30;;;;;;;9.16;86.95;98965.66;107899;1289;23777;-59
2022/10/04 10:50:24;;;;;;;7.10;2.60;;;;;;;9.16;87.10;98967.94;107737;1288;22508;-59
2022/10/04 10:53:09;;;;;;;4.40;3.00;;;;;;;9.16;87.30;98969.41;108068;1287;22583;-59
2022/10/04 10:55:57;;;;;;;5.10;2.60;;;;;;;9.19;87.55;98971.28;107858;1288;22567;-59
2022/10/04 10:58:44;;;;;;;4.60;2.60;;;;;;;9.24;87.69;98974.29;108189;1287;23680;-61
2022/10/04 11:01:48;;;;;;;3.80;2.50;;;;;;;9.28;87.60;98969.69;108008;1287;22806;-61
2022/10/04 11:04:28;;;;;;;6.40;2.40;;;;;;;9.32;87.55;98966.73;108130;1287;23283;-61
2022/10/04 11:07:02;;;;;;;181.20;113.00;;;;;;;9.37;87.47;98969.75;108089;1287;22463;-60
2022/10/04 11:09:50;;;;;;;12.00;7.00;;;;;;;9.40;87.13;98970.58;108058;1287;22368;-60
2022/10/04 11:12:44;;;;;;;6.10;3.50;;;;;;;9.45;86.60;98970.71;108029;1287;22484;-62
2022/10/04 11:15:37;;;;;;;3.90;2.70;;;;;;;9.49;86.32;98969.66;108683;1281;23348;-62
2022/10/04 11:18:20;;;;;;;3.70;2.60;;;;;;;9.54;86.18;98972.38;108917;1280;22497;-62
2022/10/04 11:21:05;;;;;;;6.10;3.30;;;;;;;9.59;86.06;98977.30;108696;1281;22475;-62
2022/10/04 11:24:13;;;;;;;4.30;2.50;;;;;;;9.61;85.72;98972.77;108984;1280;22463;-62
2022/10/04 11:27:09;;;;;;;6.10;2.20;;;;;;;9.61;85.37;98976.73;108807;1281;24271;-62
2022/10/04 11:30:08;;;;;;;4.10;2.70;;;;;;;9.61;85.16;98972.48;108673;1280;22480;-60
2022/10/04 11:33:01;;;;;;;4.10;3.30;;;;;;;9.60;84.80;98975.41;108823;1280;22459;-61
2022/10/04 11:35:43;;;;;;;5.80;2.60;;;;;;;9.61;84.57;98976.84;108954;1280;22530;-62
2022/10/04 11:38:47;;;;;;;3.50;2.30;;;;;;;9.61;84.39;98979.61;108723;1280;23782;-62
2022/10/04 11:41:21;;;;;;;4.50;2.60;;;;;;;9.62;84.06;98986.52;109047;1278;22419;-63
2022/10/04 11:44:15;;;;;;;5.70;3.60;;;;;;;9.65;84.00;98987.91;108729;1281;23242;-62
2022/10/04 11:47:05;;;;;;;6.60;3.20;;;;;;;9.68;83.94;98990.23;108978;1280;22459;-62
2022/10/04 11:49:55;;;;;;;5.40;3.50;;;;;;;9.71;83.81;98997.00;108888;1279;22430;-62
2022/10/04 11:52:44;;;;;;;4.60;3.30;;;;;;;9.74;83.71;98998.77;108972;1279;23677;-63
2022/10/04 11:55:26;;;;;;;4.00;2.80;;;;;;;9.77;83.52;98998.13;108970;1280;22395;-62
2022/10/04 11:57:56;;;;;;;6.20;3.10;;;;;;;9.79;83.35;98997.27;108732;1279;22455;-63
2022/10/04 12:00:23;;;;;;;5.10;3.40;;;;;;;9.80;83.20;99000.59;109011;1279;23577;-62
2022/10/04 12:03:12;;;;;;;32.00;19.50;;;;;;;9.84;83.66;98997.64;108941;1279;22445;-61
2022/10/04 12:06:13;;;;;;;12.80;8.60;;;;;;;9.88;83.35;98998.66;108817;1281;23157;-61
2022/10/04 12:08:40;;;;;;;6.00;2.30;;;;;;;9.94;83.35;98996.46;108817;1281;23566;-62
2022/10/04 12:15:03;;;;;;;3.20;2.00;;;;;;;10.00;82.43;99005.23;108931;1279;22481;-61
2022/10/04 12:17:29;;;;;;;;;;;;;;;10.03;82.22;99008.07;107869;1287;22535;-60
2022/10/04 12:20:33;;;;;;;3.70;2.50;;;;;;;10.07;82.14;99007.02;108026;1287;22357;-61
2022/10/04 12:23:19;;;;;;;3.50;2.20;;;;;;;10.12;81.81;99007.83;107927;1288;23760;-61
2022/10/04 12:26:26;;;;;;;5.80;2.50;;;;;;;10.18;81.66;99003.45;107849;1289;22435;-62
2022/10/04 12:29:04;;;;;;;3.60;2.10;;;;;;;10.22;81.11;99005.45;107953;1288;23135;-62
2022/10/04 12:31:55;;;;;;;3.50;2.00;;;;;;;10.25;80.89;99007.94;107918;1288;22458;-62
2022/10/04 12:34:37;;;;;;;5.40;2.40;;;;;;;10.28;80.56;99007.08;107986;1287;22553;-62
2022/10/04 12:37:10;;;;;;;3.10;2.30;;;;;;;10.31;80.28;99008.79;107940;1287;22478;-61
2022/10/04 12:39:59;;;;;;;5.20;2.30;;;;;;;10.32;80.25;99008.58;107920;1288;22501;-62
2022/10/04 12:42:33;;;;;;;4.40;2.10;;;;;;;10.35;80.10;99010.48;107916;1287;23348;-60